Time,TemperatureF,DewpointF,PressureIn,WindDirection,WindDirectionDegrees,WindSpeedMPH,WindSpeedGustMPH,Humidity,HourlyPrecipIn,Conditions,Clouds,dailyrainin,SoftwareType,DateUTC
2013-02-20 00:02:00,39.0,28.0,29.81,NW,320,7.0,-999.0,64,-99.99,,,-99.99,,2013-02-20 05:02:00,
2013-02-20 00:12:00,39.0,28.0,29.81,WNW,300,8.0,16.0,64,-99.99,,,-99.99,,2013-02-20 05:12:00,
2013-02-20 00:22:00,37.0,28.0,29.81,WNW,300,7.0,-999.0,69,-99.99,,,-99.99,,2013-02-20 05:22:00,
2013-02-20 00:32:00,37.0,28.0,29.81,WNW,300,9.0,-999.0,69,-99.99,,,-99.99,,2013-02-20 05:32:00,
2013-02-20 00:43:00,37.0,28.0,29.81,NW,310,9.0,-999.0,69,-99.99,,,-99.99,,2013-02-20 05:43:00,
2013-02-20 00:52:00,37.0,27.0,29.82,NW,320,7.0,-999.0,64,-99.99,,,-99.99,,2013-02-20 05:52:00,
2013-02-20 01:02:00,37.0,27.0,29.82,NW,320,7.0,-999.0,64,-99.99,,,-99.99,,2013-02-20 06:02:00,
2013-02-20 01:11:00,37.0,27.0,29.82,NW,310,9.0,-999.0,64,-99.99,,,-99.99,,2013-02-20 06:11:00,
2013-02-20 01:21:00,37.0,27.0,29.82,WNW,300,9.0,-999.0,64,-99.99,,,-99.99,,2013-02-20 06:21:00,
2013-02-20 01:32:00,36.0,25.0,29.82,WNW,290,6.0,-999.0,64,-99.99,,,-99.99,,2013-02-20 06:32:00,
2013-02-20 01:42:00,36.0,25.0,29.82,WNW,300,9.0,-999.0,64,-99.99,,,-99.99,,2013-02-20 06:42:00,
2013-02-20 01:51:00,36.0,25.0,29.83,NW,320,5.0,-999.0,64,-99.99,,,-99.99,,2013-02-20 06:51:00,
2013-02-20 02:02:00,36.0,25.0,29.83,NW,320,5.0,-999.0,64,-99.99,,,-99.99,,2013-02-20 07:02:00,
2013-02-20 02:11:00,36.0,25.0,29.83,WNW,290,12.0,16.0,64,-99.99,,,-99.99,,2013-02-20 07:11:00,
2013-02-20 02:21:00,36.0,23.0,29.83,WNW,290,7.0,17.0,59,-99.99,,,-99.99,,2013-02-20 07:21:00,
2013-02-20 02:32:00,36.0,23.0,29.83,WNW,300,8.0,-999.0,59,-99.99,,,-99.99,,2013-02-20 07:32:00,
2013-02-20 02:42:00,36.0,23.0,29.83,WNW,290,8.0,-999.0,59,-99.99,,,-99.99,,2013-02-20 07:42:00,
2013-02-20 02:52:00,36.0,23.0,29.84,WNW,300,8.0,-999.0,59,-99.99,,,-99.99,,2013-02-20 07:52:00,
2013-02-20 03:05:00,36.0,23.0,29.84,WNW,300,8.0,-999.0,59,-99.99,,,-99.99,,2013-02-20 08:05:00,
2013-02-20 03:11:00,36.0,23.0,29.84,WNW,300,10.0,-999.0,59,-99.99,,,-99.99,,2013-02-20 08:11:00,
2013-02-20 03:21:00,36.0,23.0,29.84,WNW,300,10.0,17.0,59,-99.99,,,-99.99,,2013-02-20 08:21:00,
2013-02-20 03:31:00,36.0,23.0,29.85,NW,320,8.0,16.0,59,-99.99,,,-99.99,,2013-02-20 08:31:00,
2013-02-20 03:41:00,36.0,23.0,29.85,NW,320,12.0,-999.0,59,-99.99,,,-99.99,,2013-02-20 08:41:00,
2013-02-20 03:52:00,34.0,23.0,29.85,WNW,300,6.0,-999.0,64,-99.99,,,-99.99,,2013-02-20 08:52:00,
2013-02-20 04:02:00,34.0,23.0,29.85,WNW,300,6.0,-999.0,64,-99.99,,,-99.99,,2013-02-20 09:02:00,
2013-02-20 04:11:00,34.0,23.0,29.85,NW,320,15.0,20.0,64,-99.99,,,-99.99,,2013-02-20 09:11:00,
2013-02-20 04:21:00,34.0,19.0,29.85,NW,320,13.0,18.0,55,-99.99,,,-99.99,,2013-02-20 09:21:00,
2013-02-20 04:32:00,34.0,19.0,29.86,WNW,290,16.0,18.0,55,-99.99,,,-99.99,,2013-02-20 09:32:00,
2013-02-20 04:42:00,34.0,19.0,29.86,West,280,8.0,18.0,55,-99.99,,,-99.99,,2013-02-20 09:42:00,
2013-02-20 04:51:00,34.0,18.0,29.86,WNW,290,9.0,20.0,51,-99.99,,,-99.99,,2013-02-20 09:51:00,
2013-02-20 05:01:00,34.0,18.0,29.86,WNW,290,9.0,20.0,51,-99.99,,,-99.99,,2013-02-20 10:01:00,
2013-02-20 05:12:00,34.0,18.0,29.87,WNW,300,15.0,17.0,51,-99.99,,,-99.99,,2013-02-20 10:12:00,
2013-02-20 05:22:00,34.0,19.0,29.87,NW,310,12.0,-999.0,55,-99.99,,,-99.99,,2013-02-20 10:22:00,
2013-02-20 05:32:00,34.0,19.0,29.87,WNW,290,9.0,20.0,55,-99.99,,,-99.99,,2013-02-20 10:32:00,
2013-02-20 05:42:00,32.0,19.0,29.87,WNW,300,10.0,18.0,59,-99.99,,,-99.99,,2013-02-20 10:42:00,
2013-02-20 05:51:00,32.0,19.0,29.88,NW,310,9.0,16.0,59,-99.99,,,-99.99,,2013-02-20 10:51:00,
2013-02-20 06:02:00,32.0,19.0,29.88,NW,310,9.0,16.0,59,-99.99,,,-99.99,,2013-02-20 11:02:00,
2013-02-20 06:11:00,32.0,16.0,29.89,WNW,300,16.0,23.0,50,-99.99,,,-99.99,,2013-02-20 11:11:00,
2013-02-20 06:21:00,32.0,14.0,29.90,WNW,300,12.0,17.0,46,-99.99,,,-99.99,,2013-02-20 11:21:00,
2013-02-20 06:32:00,32.0,14.0,29.90,NW,310,9.0,20.0,46,-99.99,,,-99.99,,2013-02-20 11:32:00,
2013-02-20 06:42:00,32.0,14.0,29.90,WNW,300,12.0,22.0,46,-99.99,,,-99.99,,2013-02-20 11:42:00,
2013-02-20 06:52:00,32.0,14.0,29.91,WNW,300,12.0,21.0,46,-99.99,,,-99.99,,2013-02-20 11:52:00,
2013-02-20 07:02:00,32.0,14.0,29.91,WNW,300,12.0,21.0,46,-99.99,,,-99.99,,2013-02-20 12:02:00,
2013-02-20 07:12:00,32.0,14.0,29.92,WNW,290,9.0,22.0,46,-99.99,,,-99.99,,2013-02-20 12:12:00,
2013-02-20 07:21:00,32.0,14.0,29.93,NW,310,13.0,17.0,46,-99.99,,,-99.99,,2013-02-20 12:21:00,
2013-02-20 07:32:00,32.0,14.0,29.93,WNW,300,8.0,-999.0,46,-99.99,,,-99.99,,2013-02-20 12:32:00,
2013-02-20 07:42:00,32.0,14.0,29.93,West,280,12.0,-999.0,46,-99.99,,,-99.99,,2013-02-20 12:42:00,
2013-02-20 07:52:00,32.0,14.0,29.93,WNW,290,8.0,16.0,46,-99.99,,,-99.99,,2013-02-20 12:52:00,
2013-02-20 08:01:00,32.0,14.0,29.93,WNW,290,8.0,16.0,46,-99.99,,,-99.99,,2013-02-20 13:01:00,
2013-02-20 08:11:00,32.0,14.0,29.94,WNW,300,13.0,-999.0,46,-99.99,,,-99.99,,2013-02-20 13:11:00,
2013-02-20 08:22:00,32.0,16.0,29.95,West,280,10.0,-999.0,50,-99.99,,,-99.99,,2013-02-20 13:22:00,
2013-02-20 08:32:00,34.0,16.0,29.94,WNW,290,13.0,22.0,47,-99.99,,,-99.99,,2013-02-20 13:32:00,
2013-02-20 08:42:00,34.0,16.0,29.94,NW,320,12.0,22.0,47,-99.99,,,-99.99,,2013-02-20 13:42:00,
2013-02-20 08:51:00,34.0,16.0,29.95,NNW,340,6.0,20.0,47,-99.99,,,-99.99,,2013-02-20 13:51:00,
2013-02-20 09:01:00,34.0,16.0,29.95,NNW,340,6.0,20.0,47,-99.99,,,-99.99,,2013-02-20 14:01:00,
2013-02-20 09:11:00,36.0,16.0,29.94,NW,320,14.0,20.0,43,-99.99,,,-99.99,,2013-02-20 14:11:00,
2013-02-20 09:21:00,32.0,16.0,29.95,NW,310,14.0,25.0,50,-99.99,,,-99.99,,2013-02-20 14:21:00,
2013-02-20 09:32:00,34.0,14.0,29.95,WNW,300,12.0,23.0,43,-99.99,,,-99.99,,2013-02-20 14:32:00,
2013-02-20 09:42:00,36.0,16.0,29.95,NW,320,12.0,21.0,43,-99.99,,,-99.99,,2013-02-20 14:42:00,
2013-02-20 09:52:00,34.0,16.0,29.95,West,270,14.0,20.0,47,-99.99,,,-99.99,,2013-02-20 14:52:00,
2013-02-20 10:01:00,34.0,16.0,29.95,West,270,14.0,20.0,47,-99.99,,,-99.99,,2013-02-20 15:01:00,
2013-02-20 10:11:00,36.0,16.0,29.95,NNW,340,10.0,23.0,43,-99.99,,,-99.99,,2013-02-20 15:11:00,
2013-02-20 10:22:00,34.0,16.0,29.95,NW,320,20.0,23.0,47,-99.99,,,-99.99,,2013-02-20 15:22:00,
2013-02-20 10:32:00,34.0,16.0,29.95,WNW,300,17.0,20.0,47,-99.99,,,-99.99,,2013-02-20 15:32:00,
2013-02-20 10:42:00,32.0,18.0,29.95,West,280,12.0,21.0,54,-99.99,,,-99.99,,2013-02-20 15:42:00,
2013-02-20 10:52:00,34.0,18.0,29.95,NW,320,21.0,21.0,51,-99.99,,,-99.99,,2013-02-20 15:52:00,
2013-02-20 11:01:00,34.0,18.0,29.95,NW,320,21.0,21.0,51,-99.99,,,-99.99,,2013-02-20 16:01:00,
2013-02-20 11:12:00,36.0,16.0,29.96,WNW,290,18.0,24.0,43,-99.99,,,-99.99,,2013-02-20 16:12:00,
2013-02-20 11:21:00,32.0,18.0,29.95,NW,310,21.0,21.0,54,-99.99,,,-99.99,,2013-02-20 16:21:00,
2013-02-20 11:32:00,32.0,18.0,29.95,WNW,290,10.0,21.0,54,-99.99,,,-99.99,,2013-02-20 16:32:00,
2013-02-20 11:42:00,32.0,18.0,29.96,WNW,300,13.0,21.0,54,-99.99,,,-99.99,,2013-02-20 16:42:00,
2013-02-20 11:52:00,34.0,16.0,29.96,WNW,290,13.0,23.0,47,-99.99,,,-99.99,,2013-02-20 16:52:00,
2013-02-20 12:01:00,34.0,16.0,29.96,WNW,290,13.0,23.0,47,-99.99,,,-99.99,,2013-02-20 17:01:00,
2013-02-20 12:11:00,36.0,16.0,29.95,West,270,23.0,24.0,43,-99.99,,,-99.99,,2013-02-20 17:11:00,
2013-02-20 12:21:00,36.0,16.0,29.95,West,280,15.0,29.0,43,-99.99,,,-99.99,,2013-02-20 17:21:00,
2013-02-20 12:32:00,36.0,16.0,29.95,WNW,300,17.0,28.0,43,-99.99,,,-99.99,,2013-02-20 17:32:00,
2013-02-20 12:42:00,34.0,16.0,29.96,WNW,290,18.0,28.0,47,-99.99,,,-99.99,,2013-02-20 17:42:00,
2013-02-20 12:52:00,36.0,14.0,29.95,WNW,290,18.0,28.0,40,-99.99,,,-99.99,,2013-02-20 17:52:00,
2013-02-20 13:02:00,36.0,14.0,29.95,WNW,290,18.0,28.0,40,-99.99,,,-99.99,,2013-02-20 18:02:00,
2013-02-20 13:11:00,36.0,14.0,29.95,WNW,300,23.0,25.0,40,-99.99,,,-99.99,,2013-02-20 18:11:00,
2013-02-20 13:21:00,36.0,12.0,29.95,West,270,18.0,29.0,37,-99.99,,,-99.99,,2013-02-20 18:21:00,
2013-02-20 13:32:00,36.0,14.0,29.94,West,280,21.0,29.0,40,-99.99,,,-99.99,,2013-02-20 18:32:00,
2013-02-20 13:42:00,36.0,14.0,29.94,West,280,17.0,28.0,40,-99.99,,,-99.99,,2013-02-20 18:42:00,
2013-02-20 13:52:00,37.0,12.0,29.94,West,280,15.0,29.0,34,-99.99,,,-99.99,,2013-02-20 18:52:00,
2013-02-20 14:01:00,37.0,12.0,29.94,West,280,15.0,29.0,34,-99.99,,,-99.99,,2013-02-20 19:01:00,
2013-02-20 14:11:00,36.0,14.0,29.94,West,260,16.0,31.0,40,-99.99,,,-99.99,,2013-02-20 19:11:00,
2013-02-20 14:21:00,36.0,14.0,29.94,WNW,300,16.0,22.0,40,-99.99,,,-99.99,,2013-02-20 19:21:00,
2013-02-20 14:31:00,36.0,12.0,29.94,WNW,300,15.0,32.0,37,-99.99,,,-99.99,,2013-02-20 19:31:00,
2013-02-20 14:41:00,36.0,12.0,29.95,WNW,300,18.0,32.0,37,-99.99,,,-99.99,,2013-02-20 19:41:00,
2013-02-20 14:52:00,36.0,14.0,29.95,West,280,23.0,27.0,40,-99.99,,,-99.99,,2013-02-20 19:52:00,
2013-02-20 15:01:00,36.0,14.0,29.95,West,280,23.0,27.0,40,-99.99,,,-99.99,,2013-02-20 20:01:00,
2013-02-20 15:11:00,34.0,14.0,29.95,West,280,14.0,29.0,43,-99.99,,,-99.99,,2013-02-20 20:11:00,
2013-02-20 15:21:00,34.0,14.0,29.95,WNW,290,22.0,31.0,43,-99.99,,,-99.99,,2013-02-20 20:21:00,
2013-02-20 15:31:00,34.0,14.0,29.95,WNW,300,22.0,31.0,43,-99.99,,,-99.99,,2013-02-20 20:31:00,
2013-02-20 15:41:00,34.0,14.0,29.95,NW,310,10.0,27.0,43,-99.99,,,-99.99,,2013-02-20 20:41:00,
2013-02-20 15:51:00,36.0,12.0,29.96,West,280,27.0,29.0,37,-99.99,,,-99.99,,2013-02-20 20:51:00,
2013-02-20 16:01:00,36.0,12.0,29.96,West,280,27.0,29.0,37,-99.99,,,-99.99,,2013-02-20 21:01:00,
2013-02-20 16:11:00,36.0,12.0,29.97,West,280,20.0,28.0,37,-99.99,,,-99.99,,2013-02-20 21:11:00,
2013-02-20 16:21:00,34.0,10.0,29.97,WNW,290,13.0,25.0,37,-99.99,,,-99.99,,2013-02-20 21:21:00,
2013-02-20 16:31:00,34.0,12.0,29.98,WNW,300,20.0,25.0,40,-99.99,,,-99.99,,2013-02-20 21:31:00,
2013-02-20 16:42:00,32.0,12.0,29.98,WNW,290,18.0,25.0,43,-99.99,,,-99.99,,2013-02-20 21:42:00,
2013-02-20 16:51:00,32.0,12.0,29.98,WNW,290,12.0,24.0,43,-99.99,,,-99.99,,2013-02-20 21:51:00,
2013-02-20 17:02:00,32.0,12.0,29.98,WNW,290,12.0,24.0,43,-99.99,,,-99.99,,2013-02-20 22:02:00,
2013-02-20 17:11:00,32.0,10.0,30.00,WNW,290,20.0,32.0,40,-99.99,,,-99.99,,2013-02-20 22:11:00,
2013-02-20 17:21:00,32.0,12.0,30.00,WNW,290,12.0,17.0,43,-99.99,,,-99.99,,2013-02-20 22:21:00,
2013-02-20 17:31:00,32.0,12.0,30.00,WNW,300,9.0,20.0,43,-99.99,,,-99.99,,2013-02-20 22:31:00,
2013-02-20 17:42:00,32.0,12.0,30.00,WNW,300,14.0,23.0,43,-99.99,,,-99.99,,2013-02-20 22:42:00,
2013-02-20 17:51:00,30.0,12.0,30.01,NW,310,14.0,-999.0,46,-99.99,,,-99.99,,2013-02-20 22:51:00,
2013-02-20 18:01:00,30.0,12.0,30.01,NW,310,14.0,-999.0,46,-99.99,,,-99.99,,2013-02-20 23:01:00,
2013-02-20 18:12:00,30.0,10.0,30.01,WNW,300,16.0,30.0,43,-99.99,,,-99.99,,2013-02-20 23:12:00,
2013-02-20 18:22:00,30.0,10.0,30.02,WNW,300,10.0,20.0,43,-99.99,,,-99.99,,2013-02-20 23:22:00,
2013-02-20 18:32:00,28.0,10.0,30.02,NW,320,15.0,22.0,46,-99.99,,,-99.99,,2013-02-20 23:32:00,
2013-02-20 18:42:00,28.0,10.0,30.03,NNW,340,14.0,20.0,46,-99.99,,,-99.99,,2013-02-20 23:42:00,
2013-02-20 18:52:00,28.0,10.0,30.03,WNW,300,10.0,22.0,46,-99.99,,,-99.99,,2013-02-20 23:52:00,
2013-02-20 19:03:00,28.0,10.0,30.03,WNW,300,10.0,22.0,46,-99.99,,,-99.99,,2013-02-21 00:03:00,
2013-02-20 19:11:00,28.0,10.0,30.03,WNW,290,9.0,17.0,46,-99.99,,,-99.99,,2013-02-21 00:11:00,
2013-02-20 19:21:00,28.0,10.0,30.04,WNW,300,10.0,-999.0,46,-99.99,,,-99.99,,2013-02-21 00:21:00,
2013-02-20 19:32:00,28.0,10.0,30.04,NW,310,12.0,16.0,46,-99.99,,,-99.99,,2013-02-21 00:32:00,
2013-02-20 19:42:00,28.0,10.0,30.05,WNW,290,9.0,20.0,46,-99.99,,,-99.99,,2013-02-21 00:42:00,
2013-02-20 19:52:00,28.0,10.0,30.05,WNW,290,8.0,-999.0,46,-99.99,,,-99.99,,2013-02-21 00:52:00,
2013-02-20 20:01:00,28.0,10.0,30.05,WNW,290,8.0,-999.0,46,-99.99,,,-99.99,,2013-02-21 01:01:00,
2013-02-20 20:11:00,28.0,10.0,30.06,WNW,300,9.0,-999.0,46,-99.99,,,-99.99,,2013-02-21 01:11:00,
2013-02-20 20:21:00,27.0,10.0,30.06,NW,310,8.0,-999.0,49,-99.99,,,-99.99,,2013-02-21 01:21:00,
2013-02-20 20:32:00,27.0,10.0,30.07,WNW,300,8.0,-999.0,49,-99.99,,,-99.99,,2013-02-21 01:32:00,
2013-02-20 20:42:00,27.0,10.0,30.07,WNW,290,9.0,17.0,49,-99.99,,,-99.99,,2013-02-21 01:42:00,
2013-02-20 20:51:00,27.0,10.0,30.07,WNW,300,10.0,17.0,49,-99.99,,,-99.99,,2013-02-21 01:51:00,
2013-02-20 21:02:00,27.0,10.0,30.07,WNW,300,10.0,17.0,49,-99.99,,,-99.99,,2013-02-21 02:02:00,
2013-02-20 21:11:00,27.0,9.0,30.07,WNW,290,7.0,21.0,46,-99.99,,,-99.99,,2013-02-21 02:11:00,
2013-02-20 21:21:00,27.0,9.0,30.08,NW,310,15.0,20.0,46,-99.99,,,-99.99,,2013-02-21 02:21:00,
2013-02-20 21:32:00,27.0,9.0,30.08,WNW,290,9.0,18.0,46,-99.99,,,-99.99,,2013-02-21 02:32:00,
2013-02-20 21:42:00,27.0,9.0,30.08,WNW,290,9.0,18.0,46,-99.99,,,-99.99,,2013-02-21 02:42:00,
2013-02-20 21:51:00,27.0,9.0,30.08,WNW,290,9.0,18.0,46,-99.99,,,-99.99,,2013-02-21 02:51:00,
2013-02-20 22:02:00,27.0,9.0,30.08,WNW,300,7.0,21.0,46,-99.99,,,-99.99,,2013-02-21 03:02:00,
2013-02-20 22:12:00,27.0,9.0,30.08,WNW,290,9.0,17.0,46,-99.99,,,-99.99,,2013-02-21 03:12:00,
2013-02-20 22:21:00,27.0,9.0,30.08,WNW,290,8.0,17.0,46,-99.99,,,-99.99,,2013-02-21 03:21:00,
2013-02-20 22:32:00,27.0,10.0,30.08,WNW,300,14.0,-999.0,49,-99.99,,,-99.99,,2013-02-21 03:32:00,
2013-02-20 22:42:00,27.0,10.0,30.08,WNW,290,7.0,-999.0,49,-99.99,,,-99.99,,2013-02-21 03:42:00,
2013-02-20 22:51:00,27.0,10.0,30.08,West,280,9.0,17.0,49,-99.99,,,-99.99,,2013-02-21 03:51:00,
2013-02-20 23:01:00,27.0,10.0,30.08,West,280,9.0,17.0,49,-99.99,,,-99.99,,2013-02-21 04:01:00,
2013-02-20 23:11:00,27.0,10.0,30.08,WNW,290,10.0,17.0,49,-99.99,,,-99.99,,2013-02-21 04:11:00,
2013-02-20 23:22:00,27.0,10.0,30.09,WNW,300,10.0,16.0,49,-99.99,,,-99.99,,2013-02-21 04:22:00,
2013-02-20 23:32:00,27.0,10.0,30.08,WNW,300,10.0,-999.0,49,-99.99,,,-99.99,,2013-02-21 04:32:00,
2013-02-20 23:42:00,27.0,10.0,30.09,WNW,290,9.0,-999.0,49,-99.99,,,-99.99,,2013-02-21 04:42:00,
2013-02-20 23:52:00,25.0,10.0,30.09,NW,310,12.0,-999.0,53,-99.99,,,-99.99,,2013-02-21 04:52:00,